Airfield :
LOGIN :

Register | Disclaimer

   EN    FR    IT 

 










Legend :    VFR   Marginal VFR   IFR   Intensive IFR   Very Intensive IFR
Visi :
Ceiling :
>= 8 km
>= 3000ft
5 to 8 km
1000 to 3000 ft
1500m to 5 km
500 to 1000 ft
800 to 1500m
200 to 500 ft
< 800m
< 200 ft
Symbols :   Thunderstorms  Fog  Heavy snow  Heavy precipitations  Wind > 20 kt
SIGMETs :     Misc.  Thunderstorms  Icing  Turbulence  Mountain Waves  Volcanic Ashes






- Airport Elevation : 267 ft


EGDR - Culdrose Navy

CURRENT METAR :
  • 191601Z 18014G27KT 3000 -RA FEW005 SCT008 BKN012 10/10 Q1009 YLO1 NOSIG RMK YLO1 YLO1

EXPIRED METARs :
  • 191550Z 18012G23KT 4500 -RA FEW005 SCT008 BKN014 10/09 Q1009 GRN TEMPO 4000 RA SCT006 BKN012 RMK GRN TEMPO YLO1
  • 191519Z 18013G24KT 8000 -RA FEW008 SCT012 BKN018 10/09 Q1009 GRN NOSIG RMK GRN GRN
  • 191450Z 19013G26KT 8000 -RA FEW008 BKN012 BKN018 11/09 Q1010 GRN NOSIG RMK GRN GRN
  • 191424Z 18012G24KT 9999 -RA SCT014 BKN018 BKN026 11/08 Q1010 GRN NOSIG RMK GRN GRN
  • 191350Z 18013G25KT 9999 FEW014 SCT018 BKN026 11/08 Q1010 WHT TEMPO 7000 -RA SCT012 BKN020 RMK WHT TEMPO GRN
  • 191321Z 18014G26KT 9999 FEW014 SCT020 BKN028 11/07 Q1010 WHT TEMPO 7000 -RA SCT012 BKN020 RMK WHT TEMPO GRN

TAF AMD TAF EGDR
Valid from the 19 at 15:00 until the 20 at 00:00 UTC


191452Z 1915/1924 17015G30KT 7000 -RA SCT010 BKN020
TEMPO 1916/1924 4000 RA SCT005 BKN010
PROB40
TEMPO 1919/1924 1500 -DZ BR SCT003 BKN005



MET'MAP, your aeronautical weather chart ! - Copyright ORBIFLY December 2007 - Disclaimer

ORBIFLY MET'MAP TEAM :

Programming & Development : Alexandra Zaïnal
Concept & Development : Baudouin d'Aumeries
Co-Development & Prog : Marc-Olivier Méhu
Technical & hardware support : Manuel Goepfert

Contact : metmap@orbifly.com




SOURCES & CREDITS :

   NOAA